createdAt,value
2018-07-13T00:00:23.534Z,0.00
2018-07-13T00:01:23.459Z,0.00
2018-07-13T00:02:23.444Z,0.00
2018-07-13T00:03:23.317Z,0.00
2018-07-13T00:04:23.247Z,0.00
2018-07-13T00:05:23.179Z,0.00
2018-07-13T00:06:23.107Z,0.00
2018-07-13T00:07:23.036Z,0.00
2018-07-13T00:08:22.964Z,0.00
2018-07-13T00:09:22.896Z,0.00
2018-07-13T00:10:22.824Z,0.00
2018-07-13T00:11:22.756Z,0.00
2018-07-13T00:12:22.687Z,0.00
2018-07-13T00:13:22.613Z,0.00
2018-07-13T00:14:22.541Z,0.00
2018-07-13T00:15:22.474Z,0.00
2018-07-13T00:16:22.399Z,0.00
2018-07-13T00:17:22.329Z,0.00
2018-07-13T00:18:22.260Z,0.00
2018-07-13T00:19:22.186Z,0.00
2018-07-13T00:20:22.141Z,0.00
2018-07-13T00:21:22.046Z,0.00
2018-07-13T00:22:21.975Z,0.00
2018-07-13T00:23:21.902Z,0.00
2018-07-13T00:24:21.831Z,0.00
2018-07-13T00:25:21.761Z,0.00
2018-07-13T00:26:21.691Z,0.00
2018-07-13T00:27:21.618Z,0.00
2018-07-13T00:28:21.548Z,0.00
2018-07-13T00:29:21.478Z,0.00
2018-07-13T00:30:21.408Z,0.00
2018-07-13T00:31:21.340Z,0.00
2018-07-13T00:32:21.264Z,0.00
2018-07-13T00:33:21.195Z,0.00
2018-07-13T00:34:21.126Z,0.00
2018-07-13T00:35:21.053Z,0.00
2018-07-13T00:36:20.982Z,0.00
2018-07-13T00:37:20.910Z,0.00
2018-07-13T00:38:20.840Z,0.00
2018-07-13T00:39:20.768Z,0.00
2018-07-13T00:40:20.698Z,0.00
2018-07-13T00:41:20.628Z,0.00
2018-07-13T00:42:20.554Z,0.00
2018-07-13T00:43:20.484Z,0.00
2018-07-13T00:44:20.413Z,0.00
2018-07-13T00:45:20.341Z,0.00
2018-07-13T00:46:20.276Z,0.00
2018-07-13T00:47:20.201Z,0.00
2018-07-13T00:48:20.132Z,0.00
2018-07-13T00:49:20.059Z,0.00
2018-07-13T00:50:19.989Z,0.00
2018-07-13T00:51:19.916Z,0.00
2018-07-13T00:52:19.879Z,0.00
2018-07-13T00:53:19.774Z,0.00
2018-07-13T00:54:19.703Z,0.00
2018-07-13T00:55:19.631Z,0.00
2018-07-13T00:56:19.560Z,0.00
2018-07-13T00:57:19.485Z,0.00
2018-07-13T00:58:19.419Z,0.00
2018-07-13T00:59:19.347Z,0.00
2018-07-13T01:00:19.277Z,0.00
2018-07-13T01:01:19.207Z,0.00
2018-07-13T01:02:19.135Z,0.00
2018-07-13T01:03:19.062Z,0.00
2018-07-13T01:04:18.992Z,0.00
2018-07-13T01:05:18.919Z,0.00
2018-07-13T01:06:18.848Z,0.00
2018-07-13T01:07:18.776Z,0.00
2018-07-13T01:08:18.706Z,0.00
2018-07-13T01:09:18.634Z,0.00
2018-07-13T01:10:18.565Z,0.00
2018-07-13T01:11:18.493Z,0.00
2018-07-13T01:12:18.423Z,0.00
2018-07-13T01:13:18.351Z,0.00
2018-07-13T01:14:18.281Z,0.00
2018-07-13T01:15:18.208Z,0.00
2018-07-13T01:16:18.137Z,0.00
2018-07-13T01:17:18.067Z,0.00
2018-07-13T01:18:17.995Z,0.00
2018-07-13T01:19:17.922Z,0.00
2018-07-13T01:20:17.851Z,0.00
2018-07-13T01:21:17.781Z,0.00
2018-07-13T01:22:17.709Z,0.00
2018-07-13T01:23:17.635Z,0.00
2018-07-13T01:24:17.566Z,0.00
2018-07-13T01:25:17.494Z,0.00
2018-07-13T01:26:17.420Z,0.00
2018-07-13T01:27:17.350Z,0.00
2018-07-13T01:28:17.281Z,0.00
2018-07-13T01:29:17.208Z,0.00
2018-07-13T01:30:17.139Z,0.00
2018-07-13T01:31:17.067Z,0.00
2018-07-13T01:32:16.994Z,0.00
2018-07-13T01:33:16.924Z,0.00
2018-07-13T01:34:16.852Z,0.00
2018-07-13T01:35:16.778Z,0.00
2018-07-13T01:36:16.712Z,0.00
2018-07-13T01:37:16.642Z,0.00
2018-07-13T01:38:16.570Z,0.00
2018-07-13T01:39:16.494Z,0.00
2018-07-13T01:40:16.420Z,0.00
2018-07-13T01:41:16.355Z,0.00
2018-07-13T01:42:16.280Z,0.00
2018-07-13T01:43:16.208Z,0.00
2018-07-13T01:44:16.138Z,0.00
2018-07-13T01:45:16.064Z,0.00
2018-07-13T01:46:15.996Z,0.00
2018-07-13T01:47:15.921Z,0.00
2018-07-13T01:48:15.854Z,0.00
2018-07-13T01:49:15.782Z,0.00
2018-07-13T01:50:15.710Z,0.00
2018-07-13T01:51:15.635Z,0.00
2018-07-13T01:52:15.564Z,0.00
2018-07-13T01:53:15.497Z,0.00
2018-07-13T01:54:15.421Z,0.00
2018-07-13T01:55:15.351Z,0.00
2018-07-13T01:56:15.279Z,0.00
2018-07-13T01:57:15.211Z,0.00
2018-07-13T01:58:15.137Z,0.00
2018-07-13T01:59:15.062Z,0.00
2018-07-13T02:00:14.991Z,0.00
2018-07-13T02:01:14.921Z,0.00
2018-07-13T02:02:14.849Z,0.00
2018-07-13T02:03:14.780Z,0.00
2018-07-13T02:04:14.707Z,0.00
2018-07-13T02:05:14.634Z,0.00
2018-07-13T02:06:14.560Z,0.00
2018-07-13T02:07:14.489Z,0.00
2018-07-13T02:08:14.419Z,0.00
2018-07-13T02:09:14.346Z,0.00
2018-07-13T02:10:14.276Z,0.00
2018-07-13T02:11:14.203Z,0.00
2018-07-13T02:12:14.135Z,0.00
2018-07-13T02:13:14.057Z,0.00
2018-07-13T02:14:13.988Z,0.00
2018-07-13T02:15:13.914Z,0.00
2018-07-13T02:16:13.849Z,0.00
2018-07-13T02:17:13.776Z,0.00
2018-07-13T02:18:13.701Z,0.00
2018-07-13T02:19:13.629Z,0.00
2018-07-13T02:20:13.558Z,0.00
2018-07-13T02:21:13.487Z,0.00
2018-07-13T02:22:13.419Z,0.00
2018-07-13T02:23:13.343Z,0.00
2018-07-13T02:24:13.270Z,0.00
2018-07-13T02:25:13.198Z,0.00
2018-07-13T02:26:13.128Z,0.00
2018-07-13T02:27:13.054Z,0.00
2018-07-13T02:28:12.984Z,0.00
2018-07-13T02:29:12.914Z,0.00
2018-07-13T02:30:12.843Z,0.00
2018-07-13T02:31:12.773Z,0.00
2018-07-13T02:32:12.695Z,0.00
2018-07-13T02:33:12.625Z,0.00
2018-07-13T02:34:12.555Z,0.00
2018-07-13T02:35:12.481Z,0.00
2018-07-13T02:36:12.409Z,0.00
2018-07-13T02:37:12.339Z,0.00
2018-07-13T02:38:12.267Z,0.00
2018-07-13T02:39:12.281Z,0.00
2018-07-13T02:40:12.121Z,0.00
2018-07-13T02:41:12.053Z,0.00
2018-07-13T02:42:11.978Z,0.00
2018-07-13T02:43:11.905Z,0.00
2018-07-13T02:44:11.836Z,0.00
2018-07-13T02:45:11.769Z,0.00
2018-07-13T02:46:11.686Z,0.00
2018-07-13T02:47:11.618Z,0.00
2018-07-13T02:48:11.549Z,0.00
2018-07-13T02:49:11.474Z,0.00
2018-07-13T02:50:11.403Z,0.00
2018-07-13T02:51:11.331Z,0.00
2018-07-13T02:52:11.261Z,0.00
2018-07-13T02:53:11.187Z,0.00
2018-07-13T02:54:11.115Z,0.00
2018-07-13T02:55:11.043Z,0.00
2018-07-13T02:56:10.970Z,0.00
2018-07-13T02:57:10.901Z,0.00
2018-07-13T02:58:10.827Z,0.00
2018-07-13T02:59:10.758Z,0.00
2018-07-13T03:00:10.680Z,0.00
2018-07-13T03:01:10.612Z,0.00
2018-07-13T03:02:10.539Z,0.00
2018-07-13T03:03:10.466Z,0.00
2018-07-13T03:04:10.394Z,0.00
2018-07-13T03:05:10.328Z,0.00
2018-07-13T03:06:10.258Z,0.00
2018-07-13T03:07:10.181Z,0.00
2018-07-13T03:08:10.107Z,0.00
2018-07-13T03:09:10.034Z,0.00
2018-07-13T03:10:09.964Z,0.00
2018-07-13T03:11:09.891Z,0.00
2018-07-13T03:12:09.821Z,0.00
2018-07-13T03:13:09.746Z,0.00
2018-07-13T03:14:09.679Z,0.00
2018-07-13T03:15:09.602Z,0.00
2018-07-13T03:16:09.525Z,0.00
2018-07-13T03:17:09.457Z,0.00
2018-07-13T03:18:09.387Z,0.00
2018-07-13T03:19:09.312Z,0.00
2018-07-13T03:20:09.243Z,0.00
2018-07-13T03:21:09.171Z,0.00
2018-07-13T03:22:09.114Z,0.00
2018-07-13T03:23:09.026Z,0.00
2018-07-13T03:24:08.955Z,0.00
2018-07-13T03:25:08.881Z,0.00
2018-07-13T03:26:08.814Z,0.00
2018-07-13T03:27:08.741Z,0.00
2018-07-13T03:28:08.666Z,0.00
2018-07-13T03:29:08.596Z,0.00
2018-07-13T03:30:08.525Z,0.00
2018-07-13T03:31:08.446Z,0.00
2018-07-13T03:32:08.384Z,0.00
2018-07-13T03:33:08.305Z,0.00
2018-07-13T03:34:08.236Z,0.00
2018-07-13T03:35:08.160Z,5.63
2018-07-13T03:36:08.089Z,5.63
2018-07-13T03:37:08.019Z,5.63
2018-07-13T03:38:07.942Z,5.63
2018-07-13T03:39:07.890Z,5.63
2018-07-13T03:40:07.806Z,5.63
2018-07-13T03:41:07.732Z,5.63
2018-07-13T03:42:07.663Z,5.63
2018-07-13T03:43:07.587Z,5.63
2018-07-13T03:44:07.513Z,5.63
2018-07-13T03:45:07.445Z,5.63
2018-07-13T03:46:07.369Z,5.63
2018-07-13T03:47:07.294Z,11.25
2018-07-13T03:48:07.229Z,11.25
2018-07-13T03:49:07.153Z,11.25
2018-07-13T03:50:07.079Z,11.25
2018-07-13T03:51:07.008Z,11.25
2018-07-13T03:52:06.937Z,11.25
2018-07-13T03:53:06.865Z,11.25
2018-07-13T03:54:06.847Z,11.25
2018-07-13T03:55:06.727Z,11.25
2018-07-13T03:56:06.651Z,11.25
2018-07-13T03:57:06.576Z,16.88
2018-07-13T03:58:06.508Z,16.88
2018-07-13T03:59:06.433Z,16.88
2018-07-13T04:00:06.362Z,16.88
2018-07-13T04:01:06.287Z,16.88
2018-07-13T04:02:06.217Z,16.88
2018-07-13T04:03:06.145Z,16.88
2018-07-13T04:04:06.073Z,16.88
2018-07-13T04:05:06.007Z,16.88
2018-07-13T04:06:05.929Z,22.50
2018-07-13T04:07:05.896Z,22.50
2018-07-13T04:08:05.784Z,22.50
2018-07-13T04:09:05.716Z,22.50
2018-07-13T04:10:05.647Z,22.50
2018-07-13T04:11:05.567Z,22.50
2018-07-13T04:12:05.505Z,22.50
2018-07-13T04:13:05.424Z,22.50
2018-07-13T04:14:05.353Z,22.50
2018-07-13T04:15:05.280Z,28.13
2018-07-13T04:16:05.214Z,28.13
2018-07-13T04:17:05.137Z,28.13
2018-07-13T04:18:05.065Z,28.13
2018-07-13T04:19:04.997Z,28.13
2018-07-13T04:20:04.921Z,28.13
2018-07-13T04:21:04.845Z,28.13
2018-07-13T04:22:04.777Z,28.13
2018-07-13T04:23:04.708Z,28.13
2018-07-13T04:24:04.635Z,33.75
2018-07-13T04:25:04.565Z,33.75
2018-07-13T04:26:04.490Z,33.75
2018-07-13T04:27:04.415Z,33.75
2018-07-13T04:28:04.345Z,33.75
2018-07-13T04:29:04.274Z,33.75
2018-07-13T04:30:04.203Z,33.75
2018-07-13T04:31:04.130Z,33.75
2018-07-13T04:32:04.056Z,33.75
2018-07-13T04:33:03.986Z,33.75
2018-07-13T04:34:03.919Z,39.38
2018-07-13T04:35:03.843Z,39.38
2018-07-13T04:36:03.767Z,39.38
2018-07-13T04:37:03.698Z,39.38
2018-07-13T04:38:03.625Z,39.38
2018-07-13T04:39:03.551Z,39.38
2018-07-13T04:40:03.480Z,39.38
2018-07-13T04:41:03.470Z,39.38
2018-07-13T04:42:03.343Z,39.38
2018-07-13T04:43:03.264Z,45.00
2018-07-13T04:44:03.192Z,45.00
2018-07-13T04:45:03.122Z,45.00
2018-07-13T04:46:03.096Z,45.00
2018-07-13T04:47:02.977Z,45.00
2018-07-13T04:48:02.912Z,45.00
2018-07-13T04:49:02.835Z,50.63
2018-07-13T04:50:02.768Z,50.63
2018-07-13T04:51:02.689Z,50.63
2018-07-13T04:52:02.618Z,50.63
2018-07-13T04:53:02.548Z,56.25
2018-07-13T04:54:02.471Z,56.25
2018-07-13T04:55:02.404Z,56.25
2018-07-13T04:56:02.330Z,56.25
2018-07-13T04:57:02.258Z,61.88
2018-07-13T04:58:02.184Z,61.88
2018-07-13T04:59:02.115Z,61.88
2018-07-13T05:00:02.045Z,61.88
2018-07-13T05:01:01.976Z,61.88
2018-07-13T05:02:01.902Z,61.88
2018-07-13T05:03:01.823Z,61.88
2018-07-13T05:04:01.752Z,67.50
2018-07-13T05:05:01.683Z,67.50
2018-07-13T05:06:01.612Z,67.50
2018-07-13T05:07:01.538Z,67.50
2018-07-13T05:08:01.472Z,67.50
2018-07-13T05:09:01.394Z,67.50
2018-07-13T05:10:01.326Z,67.50
2018-07-13T05:11:01.252Z,67.50
2018-07-13T05:12:01.185Z,67.50
2018-07-13T05:13:01.107Z,73.13
2018-07-13T05:14:01.037Z,73.13
2018-07-13T05:15:00.965Z,73.13
2018-07-13T05:16:00.892Z,73.13
2018-07-13T05:17:00.822Z,73.13
2018-07-13T05:18:00.748Z,73.13
2018-07-13T05:19:00.676Z,73.13
2018-07-13T05:20:00.609Z,73.13
2018-07-13T05:21:00.537Z,73.13
2018-07-13T05:22:00.462Z,73.13
2018-07-13T05:23:00.413Z,73.13
2018-07-13T05:24:00.317Z,73.13
2018-07-13T05:25:00.246Z,73.13
2018-07-13T05:26:00.174Z,73.13
2018-07-13T05:27:00.100Z,73.13
2018-07-13T05:28:00.041Z,78.75
2018-07-13T05:28:59.968Z,73.13
2018-07-13T05:29:59.919Z,78.75
2018-07-13T05:30:59.828Z,78.75
2018-07-13T05:31:59.748Z,78.75
2018-07-13T05:32:59.675Z,78.75
2018-07-13T05:33:59.603Z,78.75
2018-07-13T05:34:59.529Z,78.75
2018-07-13T05:35:59.457Z,78.75
2018-07-13T05:36:59.387Z,78.75
2018-07-13T05:37:59.320Z,78.75
2018-07-13T05:38:59.245Z,78.75
2018-07-13T05:39:59.175Z,78.75
2018-07-13T05:40:59.107Z,78.75
2018-07-13T05:41:59.033Z,78.75
2018-07-13T05:42:58.959Z,78.75
2018-07-13T05:43:58.892Z,78.75
2018-07-13T05:44:58.822Z,78.75
2018-07-13T05:45:58.745Z,84.38
2018-07-13T05:46:58.674Z,84.38
2018-07-13T05:47:58.601Z,84.38
2018-07-13T05:48:58.535Z,84.38
2018-07-13T05:49:58.465Z,84.38
2018-07-13T05:50:58.386Z,84.38
2018-07-13T05:51:58.324Z,84.38
2018-07-13T05:52:58.242Z,84.38
2018-07-13T05:53:58.168Z,84.38
2018-07-13T05:54:58.097Z,84.38
2018-07-13T05:55:58.039Z,84.38
2018-07-13T05:56:57.958Z,84.38
2018-07-13T05:57:57.887Z,84.38
2018-07-13T05:58:57.817Z,90.00
2018-07-13T05:59:57.744Z,90.00
2018-07-13T06:00:57.726Z,90.00
2018-07-13T06:01:57.606Z,90.00
2018-07-13T06:02:57.533Z,90.00
2018-07-13T06:03:57.484Z,90.00
2018-07-13T06:04:57.390Z,90.00
2018-07-13T06:05:57.349Z,90.00
2018-07-13T06:06:57.303Z,90.00
2018-07-13T06:07:57.174Z,90.00
2018-07-13T06:08:57.105Z,90.00
2018-07-13T06:09:57.038Z,90.00
2018-07-13T06:10:56.984Z,90.00
2018-07-13T06:11:56.905Z,90.00
2018-07-13T06:12:56.844Z,95.63
2018-07-13T06:13:56.750Z,95.63
2018-07-13T06:14:56.687Z,101.25
2018-07-13T06:15:56.650Z,95.63
2018-07-13T06:16:56.537Z,95.63
2018-07-13T06:17:56.467Z,101.25
2018-07-13T06:18:56.404Z,95.63
2018-07-13T06:19:56.338Z,95.63
2018-07-13T06:20:56.255Z,95.63
2018-07-13T06:21:56.181Z,95.63
2018-07-13T06:22:56.112Z,95.63
2018-07-13T06:23:56.043Z,95.63
2018-07-13T06:24:55.974Z,95.63
2018-07-13T06:25:55.899Z,95.63
2018-07-13T06:26:55.828Z,95.63
2018-07-13T06:27:55.758Z,95.63
2018-07-13T06:28:55.687Z,95.63
2018-07-13T06:29:55.616Z,95.63
2018-07-13T06:30:55.544Z,95.63
2018-07-13T06:31:55.470Z,101.25
2018-07-13T06:32:55.405Z,101.25
2018-07-13T06:33:55.338Z,101.25
2018-07-13T06:34:55.266Z,101.25
2018-07-13T06:35:55.191Z,101.25
2018-07-13T06:36:55.123Z,101.25
2018-07-13T06:37:55.053Z,101.25
2018-07-13T06:38:54.983Z,101.25
2018-07-13T06:39:54.907Z,101.25
2018-07-13T06:40:54.842Z,101.25
2018-07-13T06:41:54.770Z,101.25
2018-07-13T06:42:54.697Z,101.25
2018-07-13T06:43:54.629Z,101.25
2018-07-13T06:44:54.608Z,101.25
2018-07-13T06:45:54.489Z,101.25
2018-07-13T06:46:54.417Z,101.25
2018-07-13T06:47:54.344Z,106.88
2018-07-13T06:48:54.275Z,106.88
2018-07-13T06:49:54.208Z,106.88
2018-07-13T06:50:54.139Z,106.88
2018-07-13T06:51:54.069Z,106.88
2018-07-13T06:52:55.030Z,106.88
2018-07-13T06:53:53.923Z,106.88
2018-07-13T06:54:53.853Z,106.88
2018-07-13T06:55:53.786Z,106.88
2018-07-13T06:56:53.770Z,106.88
2018-07-13T06:57:53.643Z,106.88
2018-07-13T06:58:53.571Z,106.88
2018-07-13T06:59:53.501Z,106.88
2018-07-13T07:00:53.432Z,106.88
2018-07-13T07:01:53.356Z,106.88
2018-07-13T07:02:53.292Z,112.50
2018-07-13T07:03:53.219Z,112.50
2018-07-13T07:04:53.149Z,112.50
2018-07-13T07:05:53.080Z,112.50
2018-07-13T07:06:53.009Z,112.50
2018-07-13T07:07:52.938Z,112.50
2018-07-13T07:08:52.876Z,112.50
2018-07-13T07:09:52.804Z,112.50
2018-07-13T07:10:52.728Z,112.50
2018-07-13T07:11:52.659Z,112.50
2018-07-13T07:12:52.588Z,112.50
2018-07-13T07:13:52.519Z,112.50
2018-07-13T07:14:52.448Z,112.50
2018-07-13T07:15:52.378Z,112.50
2018-07-13T07:16:52.306Z,118.13
2018-07-13T07:17:52.320Z,118.13
2018-07-13T07:18:52.167Z,118.13
2018-07-13T07:19:52.095Z,118.13
2018-07-13T07:20:52.027Z,118.13
2018-07-13T07:21:51.956Z,118.13
2018-07-13T07:22:51.886Z,118.13
2018-07-13T07:23:51.815Z,118.13
2018-07-13T07:24:51.747Z,118.13
2018-07-13T07:25:51.676Z,118.13
2018-07-13T07:26:51.607Z,118.13
2018-07-13T07:27:51.537Z,118.13
2018-07-13T07:28:51.472Z,118.13
2018-07-13T07:29:51.398Z,118.13
2018-07-13T07:30:51.328Z,118.13
2018-07-13T07:31:51.257Z,118.13
2018-07-13T07:32:51.188Z,118.13
2018-07-13T07:33:51.118Z,123.75
2018-07-13T07:34:51.051Z,123.75
2018-07-13T07:35:50.978Z,123.75
2018-07-13T07:36:50.909Z,123.75
2018-07-13T07:37:50.844Z,123.75
2018-07-13T07:38:50.768Z,123.75
2018-07-13T07:39:50.697Z,123.75
2018-07-13T07:40:50.628Z,123.75
2018-07-13T07:41:50.557Z,123.75
2018-07-13T07:42:50.489Z,123.75
2018-07-13T07:43:50.476Z,123.75
2018-07-13T07:44:50.350Z,123.75
2018-07-13T07:45:50.280Z,123.75
2018-07-13T07:46:50.220Z,123.75
2018-07-13T07:47:50.138Z,123.75
2018-07-13T07:48:50.073Z,129.38
2018-07-13T07:49:50.006Z,129.38
2018-07-13T07:50:49.929Z,129.38
2018-07-13T07:51:49.866Z,129.38
2018-07-13T07:52:49.794Z,129.38
2018-07-13T07:53:49.727Z,129.38
2018-07-13T07:54:49.655Z,129.38
2018-07-13T07:55:49.586Z,129.38
2018-07-13T07:56:49.518Z,129.38
2018-07-13T07:57:49.447Z,129.38
2018-07-13T07:58:49.383Z,129.38
2018-07-13T07:59:49.303Z,129.38
2018-07-13T08:00:49.245Z,129.38
2018-07-13T08:01:49.181Z,129.38
2018-07-13T08:02:49.154Z,129.38
2018-07-13T08:03:49.025Z,129.38
2018-07-13T08:04:48.973Z,129.38
2018-07-13T08:05:48.892Z,129.38
2018-07-13T08:06:49.099Z,129.38
2018-07-13T08:07:48.757Z,129.38
2018-07-13T08:08:48.678Z,129.38
2018-07-13T08:09:48.616Z,129.38
2018-07-13T08:10:48.547Z,129.38
2018-07-13T08:11:48.478Z,129.38
2018-07-13T08:12:48.409Z,135.00
2018-07-13T08:13:48.460Z,135.00
2018-07-13T08:14:48.271Z,135.00
2018-07-13T08:15:48.202Z,135.00
2018-07-13T08:16:48.140Z,135.00
2018-07-13T08:17:48.064Z,135.00
2018-07-13T08:18:47.993Z,135.00
2018-07-13T08:19:47.927Z,135.00
2018-07-13T08:20:47.857Z,135.00
2018-07-13T08:21:47.787Z,140.63
2018-07-13T08:22:47.719Z,140.63
2018-07-13T08:23:47.649Z,140.63
2018-07-13T08:24:47.580Z,140.63
2018-07-13T08:25:47.515Z,140.63
2018-07-13T08:26:47.518Z,140.63
2018-07-13T08:27:47.374Z,140.63
2018-07-13T08:28:47.305Z,140.63
2018-07-13T08:29:47.236Z,146.25
2018-07-13T08:30:47.167Z,146.25
2018-07-13T08:31:47.097Z,146.25
2018-07-13T08:32:47.030Z,146.25
2018-07-13T08:33:46.962Z,146.25
2018-07-13T08:34:46.892Z,146.25
2018-07-13T08:35:46.825Z,146.25
2018-07-13T08:36:46.754Z,146.25
2018-07-13T08:37:46.738Z,146.25
2018-07-13T08:38:46.631Z,146.25
2018-07-13T08:39:46.549Z,146.25
2018-07-13T08:40:46.485Z,146.25
2018-07-13T08:41:46.415Z,151.88
2018-07-13T08:42:46.344Z,151.88
2018-07-13T08:43:46.276Z,151.88
2018-07-13T08:44:46.205Z,151.88
2018-07-13T08:45:46.179Z,151.88
2018-07-13T08:46:46.069Z,151.88
2018-07-13T08:47:46.002Z,151.88
2018-07-13T08:48:45.945Z,151.88
2018-07-13T08:49:45.868Z,151.88
2018-07-13T08:50:45.796Z,151.88
2018-07-13T08:51:45.757Z,151.88
2018-07-13T08:52:45.662Z,157.50
2018-07-13T08:53:45.599Z,157.50
2018-07-13T08:54:45.525Z,157.50
2018-07-13T08:55:45.460Z,163.13
2018-07-13T08:56:45.389Z,163.13
2018-07-13T08:57:45.319Z,163.13
2018-07-13T08:58:45.253Z,163.13
2018-07-13T08:59:45.214Z,163.13
2018-07-13T09:00:45.119Z,163.13
2018-07-13T09:01:45.083Z,163.13
2018-07-13T09:02:44.981Z,168.75
2018-07-13T09:03:44.915Z,163.13
2018-07-13T09:04:44.878Z,163.13
2018-07-13T09:05:44.798Z,163.13
2018-07-13T09:06:44.717Z,168.75
2018-07-13T09:07:44.642Z,174.38
2018-07-13T09:08:44.575Z,174.38
2018-07-13T09:09:44.508Z,180.00
2018-07-13T09:10:44.471Z,202.50
2018-07-13T09:11:44.385Z,309.38
2018-07-13T09:12:44.306Z,523.13
2018-07-13T09:13:44.250Z,500.63
2018-07-13T09:14:44.170Z,489.38
2018-07-13T09:15:44.109Z,528.75
2018-07-13T09:16:44.036Z,528.75
2018-07-13T09:17:43.969Z,551.25
2018-07-13T09:18:43.910Z,579.38
2018-07-13T09:19:43.840Z,596.25
2018-07-13T09:20:43.783Z,579.38
2018-07-13T09:21:43.710Z,585.00
2018-07-13T09:22:43.645Z,568.13
2018-07-13T09:23:43.576Z,590.63
2018-07-13T09:24:43.521Z,585.00
2018-07-13T09:25:43.453Z,590.63
2018-07-13T09:26:43.392Z,601.88
2018-07-13T09:27:43.330Z,607.50
2018-07-13T09:28:43.278Z,607.50
2018-07-13T09:29:43.205Z,607.50
2018-07-13T09:30:43.141Z,624.38
2018-07-13T09:31:43.087Z,635.63
2018-07-13T09:32:43.047Z,641.25
2018-07-13T09:33:42.967Z,658.13
2018-07-13T09:34:42.906Z,658.13
2018-07-13T09:35:42.843Z,652.50
2018-07-13T09:36:42.787Z,669.38
2018-07-13T09:37:42.727Z,686.25
2018-07-13T09:38:42.675Z,691.88
2018-07-13T09:39:42.613Z,703.13
2018-07-13T09:40:42.549Z,720.00
2018-07-13T09:41:42.493Z,753.75
2018-07-13T09:42:42.442Z,776.25
2018-07-13T09:43:42.380Z,804.38
2018-07-13T09:44:42.322Z,838.13
2018-07-13T09:45:42.264Z,871.88
2018-07-13T09:46:42.230Z,900.00
2018-07-13T09:47:42.153Z,911.25
2018-07-13T09:48:42.094Z,916.88
2018-07-13T09:49:42.031Z,973.13
2018-07-13T09:50:41.986Z,1006.88
2018-07-13T09:51:41.927Z,1102.50
2018-07-13T09:52:41.868Z,1170.00
2018-07-13T09:53:41.854Z,1265.63
2018-07-13T09:54:41.763Z,1350.00
2018-07-13T09:55:41.698Z,1485.00
2018-07-13T09:56:41.646Z,1681.88
2018-07-13T09:57:41.590Z,1828.13
2018-07-13T09:58:41.533Z,2008.13
2018-07-13T09:59:41.476Z,2311.88
2018-07-13T10:00:41.550Z,2531.25
2018-07-13T10:01:41.369Z,2705.63
2018-07-13T10:02:41.311Z,2716.88
2018-07-13T10:03:41.256Z,2733.75
2018-07-13T10:04:41.202Z,2784.38
2018-07-13T10:05:41.155Z,2964.38
2018-07-13T10:06:41.092Z,3105.00
2018-07-13T10:07:41.034Z,3088.13
2018-07-13T10:08:40.982Z,3065.63
2018-07-13T10:09:40.927Z,2868.75
2018-07-13T10:10:40.874Z,2733.75
2018-07-13T10:11:40.819Z,2761.88
2018-07-13T10:12:40.763Z,2666.25
2018-07-13T10:13:40.708Z,2587.50
2018-07-13T10:14:40.653Z,2458.13
2018-07-13T10:15:40.604Z,2283.75
2018-07-13T10:16:40.546Z,2160.00
2018-07-13T10:17:40.492Z,1996.88
2018-07-13T10:18:40.436Z,2053.13
2018-07-13T10:19:40.379Z,2025.00
2018-07-13T10:20:40.340Z,1974.38
2018-07-13T10:21:40.276Z,1940.63
2018-07-13T10:22:40.218Z,1940.63
2018-07-13T10:23:40.168Z,1951.88
2018-07-13T10:24:40.110Z,1856.25
2018-07-13T10:25:40.061Z,1755.00
2018-07-13T10:26:40.060Z,1676.25
2018-07-13T10:27:39.957Z,1625.63
2018-07-13T10:28:39.898Z,1608.75
2018-07-13T10:29:39.844Z,1631.25
2018-07-13T10:30:39.790Z,1620.00
2018-07-13T10:31:39.742Z,1586.25
2018-07-13T10:32:39.690Z,1524.38
2018-07-13T10:33:39.632Z,1518.75
2018-07-13T10:34:39.579Z,1524.38
2018-07-13T10:35:39.527Z,1507.50
2018-07-13T10:36:39.473Z,1496.25
2018-07-13T10:37:39.425Z,1518.75
2018-07-13T10:38:39.368Z,1496.25
2018-07-13T10:39:39.314Z,1428.75
2018-07-13T10:40:39.262Z,1423.13
2018-07-13T10:41:39.206Z,1406.25
2018-07-13T10:42:39.158Z,1496.25
2018-07-13T10:43:39.107Z,1653.75
2018-07-13T10:44:39.051Z,1192.50
2018-07-13T10:45:39.036Z,410.63
2018-07-13T10:46:38.946Z,984.38
2018-07-13T10:47:38.941Z,326.25
2018-07-13T10:48:38.840Z,258.75
2018-07-13T10:49:38.786Z,241.88
2018-07-13T10:50:38.734Z,247.50
2018-07-13T10:51:38.765Z,247.50
2018-07-13T10:52:38.624Z,241.88
2018-07-13T10:53:38.564Z,247.50
2018-07-13T10:54:38.511Z,281.25
2018-07-13T10:55:38.455Z,241.88
2018-07-13T10:56:38.397Z,247.50
2018-07-13T10:57:38.345Z,343.13
2018-07-13T10:58:38.346Z,376.88
2018-07-13T10:59:38.226Z,421.88
2018-07-13T11:00:38.170Z,708.75
2018-07-13T11:01:38.115Z,371.25
2018-07-13T11:02:38.053Z,331.88
2018-07-13T11:03:38.000Z,315.00
2018-07-13T11:04:37.933Z,292.50
2018-07-13T11:05:37.882Z,337.50
2018-07-13T11:06:37.814Z,562.50
2018-07-13T11:07:37.753Z,286.88
2018-07-13T11:08:37.695Z,315.00
2018-07-13T11:09:37.638Z,281.25
2018-07-13T11:10:37.575Z,298.13
2018-07-13T11:11:37.511Z,517.50
2018-07-13T11:12:37.452Z,315.00
2018-07-13T11:13:37.395Z,298.13
2018-07-13T11:14:37.329Z,821.25
2018-07-13T11:15:37.266Z,669.38
2018-07-13T11:16:37.205Z,427.50
2018-07-13T11:17:37.144Z,270.00
2018-07-13T11:18:37.080Z,275.63
2018-07-13T11:19:37.019Z,500.63
2018-07-13T11:20:36.957Z,286.88
2018-07-13T11:21:36.895Z,354.38
2018-07-13T11:22:36.829Z,2205.00
2018-07-13T11:23:36.770Z,2176.88
2018-07-13T11:24:36.709Z,686.25
2018-07-13T11:25:36.644Z,1935.00
2018-07-13T11:26:36.584Z,2160.00
2018-07-13T11:27:36.524Z,680.63
2018-07-13T11:28:36.457Z,2103.75
2018-07-13T11:29:36.461Z,2306.25
2018-07-13T11:30:36.338Z,618.75
2018-07-13T11:31:36.274Z,376.88
2018-07-13T11:32:36.218Z,399.38
2018-07-13T11:33:36.154Z,545.63
2018-07-13T11:34:36.089Z,416.25
2018-07-13T11:35:36.032Z,405.00
2018-07-13T11:36:35.970Z,427.50
2018-07-13T11:37:35.917Z,326.25
2018-07-13T11:38:35.850Z,258.75
2018-07-13T11:39:35.787Z,253.13
2018-07-13T11:40:35.726Z,270.00
2018-07-13T11:41:35.668Z,292.50
2018-07-13T11:42:35.605Z,292.50
2018-07-13T11:43:35.543Z,292.50
2018-07-13T11:44:35.479Z,298.13
2018-07-13T11:45:35.420Z,540.00
2018-07-13T11:46:35.359Z,331.88
2018-07-13T11:47:35.294Z,309.38
2018-07-13T11:48:35.237Z,376.88
2018-07-13T11:49:35.173Z,320.63
2018-07-13T11:50:35.112Z,523.13
2018-07-13T11:51:35.048Z,613.13
2018-07-13T11:52:34.990Z,292.50
2018-07-13T11:53:34.923Z,303.75
2018-07-13T11:54:34.864Z,427.50
2018-07-13T11:55:34.796Z,270.00
2018-07-13T11:56:34.737Z,371.25
2018-07-13T11:57:34.673Z,495.00
2018-07-13T11:58:34.608Z,298.13
2018-07-13T11:59:34.546Z,303.75
2018-07-13T12:00:34.542Z,680.63
2018-07-13T12:01:34.423Z,759.38
2018-07-13T12:02:34.355Z,928.13
2018-07-13T12:03:34.293Z,804.38
2018-07-13T12:04:34.228Z,1350.00
2018-07-13T12:05:34.167Z,551.25
2018-07-13T12:06:34.100Z,298.13
2018-07-13T12:07:34.062Z,455.63
2018-07-13T12:08:33.979Z,326.25
2018-07-13T12:09:33.917Z,360.00
2018-07-13T12:10:33.851Z,382.50
2018-07-13T12:11:33.787Z,455.63
2018-07-13T12:12:33.740Z,286.88
2018-07-13T12:13:33.660Z,376.88
2018-07-13T12:14:33.597Z,320.63
2018-07-13T12:15:33.534Z,275.63
2018-07-13T12:16:33.515Z,275.63
2018-07-13T12:17:33.523Z,309.38
2018-07-13T12:18:33.348Z,286.88
2018-07-13T12:19:33.282Z,298.13
2018-07-13T12:20:33.220Z,292.50
2018-07-13T12:21:33.148Z,286.88
2018-07-13T12:22:33.097Z,281.25
2018-07-13T12:23:33.024Z,275.63
2018-07-13T12:24:32.968Z,275.63
2018-07-13T12:25:32.904Z,281.25
2018-07-13T12:26:32.837Z,281.25
2018-07-13T12:27:32.769Z,281.25
2018-07-13T12:28:32.705Z,438.75
2018-07-13T12:29:32.641Z,292.50
2018-07-13T12:30:32.576Z,292.50
2018-07-13T12:31:32.510Z,298.13
2018-07-13T12:32:32.484Z,320.63
2018-07-13T12:33:32.385Z,365.63
2018-07-13T12:34:32.321Z,354.38
2018-07-13T12:35:32.260Z,337.50
2018-07-13T12:36:32.193Z,337.50
2018-07-13T12:37:32.130Z,365.63
2018-07-13T12:38:32.065Z,348.75
2018-07-13T12:39:32.065Z,331.88
2018-07-13T12:40:31.934Z,337.50
2018-07-13T12:41:31.872Z,343.13
2018-07-13T12:42:31.806Z,331.88
2018-07-13T12:43:31.744Z,348.75
2018-07-13T12:44:31.680Z,343.13